KHON

Huron Regional Airport

Huron, South Dakota, USA
METAR KHON 140655Z AUTO 19004KT 10SM CLR M02/M06 A3014 RMK AO2 SLP221 T10221061
Observed Flight Rules
Dec-14 @ 06:55 UTC (60 minutes ago) Visual Flight Rules
Wind Visibility Clouds
190° at 4 knots 10 miles
  • Clear skies
Temperatures Readings
Current -2°C / 28°F
Dewpoint -6°C / 21°F
Humidity 74%
Altimeter 30.14" Hg
Pressure 1022.1 hPa
Elevation 390
METAR KHON 140655Z AUTO 19004KT 10SM CLR M02/M06 A3014 RMK AO2 SLP221 T10221061
Observed Flight Rules
Dec-14 @ 06:55 UTC
(60 minutes ago)
VFR
Wind Visibility
190° at 4 knots 10 miles
Clouds
  • Clear skies
Temperature Dewpoint
-2°C / 28°F -6°C / 21°F
Humidity Altimeter Pressure
74% 30.14" Hg 1022.1 hPa